sensor_id;sensor_type;location;lat;lon;timestamp;temperature;humidity
573;DHT22;271;51.114;13.780;2023-06-14T00:02:50;13.50;1.00
573;DHT22;271;51.114;13.780;2023-06-14T00:05:38;13.40;1.00
573;DHT22;271;51.114;13.780;2023-06-14T00:08:29;13.30;1.00
573;DHT22;271;51.114;13.780;2023-06-14T00:11:16;13.30;1.00
573;DHT22;271;51.114;13.780;2023-06-14T00:14:04;13.30;1.00
573;DHT22;271;51.114;13.780;2023-06-14T00:16:53;13.30;1.00
573;DHT22;271;51.114;13.780;2023-06-14T00:19:44;13.20;1.00
573;DHT22;271;51.114;13.780;2023-06-14T00:22:32;13.20;1.00
573;DHT22;271;51.114;13.780;2023-06-14T00:25:21;13.10;1.00
573;DHT22;271;51.114;13.780;2023-06-14T00:28:09;13.10;1.00
573;DHT22;271;51.114;13.780;2023-06-14T00:30:57;13.00;1.00
573;DHT22;271;51.114;13.780;2023-06-14T00:33:46;13.00;1.00
573;DHT22;271;51.114;13.780;2023-06-14T00:36:34;13.00;1.00
573;DHT22;271;51.114;13.780;2023-06-14T00:39:21;13.00;1.00
573;DHT22;271;51.114;13.780;2023-06-14T00:42:09;12.90;1.00
573;DHT22;271;51.114;13.780;2023-06-14T00:44:57;12.80;1.00
573;DHT22;271;51.114;13.780;2023-06-14T00:47:46;12.80;1.00
573;DHT22;271;51.114;13.780;2023-06-14T00:50:35;12.80;1.00
573;DHT22;271;51.114;13.780;2023-06-14T00:53:24;12.80;1.00
573;DHT22;271;51.114;13.780;2023-06-14T00:56:12;12.90;1.00
573;DHT22;271;51.114;13.780;2023-06-14T00:59:01;12.80;1.00
573;DHT22;271;51.114;13.780;2023-06-14T01:01:49;12.70;1.00
573;DHT22;271;51.114;13.780;2023-06-14T01:04:37;12.70;1.00
573;DHT22;271;51.114;13.780;2023-06-14T01:07:35;12.70;1.00
573;DHT22;271;51.114;13.780;2023-06-14T01:10:35;12.70;1.00
573;DHT22;271;51.114;13.780;2023-06-14T01:13:29;12.60;1.00
573;DHT22;271;51.114;13.780;2023-06-14T01:16:20;12.70;1.00
573;DHT22;271;51.114;13.780;2023-06-14T01:19:10;12.70;1.00
573;DHT22;271;51.114;13.780;2023-06-14T01:22:01;12.50;1.00
573;DHT22;271;51.114;13.780;2023-06-14T01:24:51;12.40;1.00
573;DHT22;271;51.114;13.780;2023-06-14T01:27:41;12.30;1.00
573;DHT22;271;51.114;13.780;2023-06-14T01:30:29;12.30;1.00
573;DHT22;271;51.114;13.780;2023-06-14T01:33:21;12.30;1.00
573;DHT22;271;51.114;13.780;2023-06-14T01:36:09;12.20;1.00
573;DHT22;271;51.114;13.780;2023-06-14T01:38:58;12.10;1.00
573;DHT22;271;51.114;13.780;2023-06-14T01:41:48;12.00;1.00
573;DHT22;271;51.114;13.780;2023-06-14T01:44:36;12.00;1.00
573;DHT22;271;51.114;13.780;2023-06-14T01:47:24;12.00;1.00
573;DHT22;271;51.114;13.780;2023-06-14T01:50:13;11.90;1.00
573;DHT22;271;51.114;13.780;2023-06-14T01:53:01;11.90;1.00
573;DHT22;271;51.114;13.780;2023-06-14T01:55:48;11.80;1.00
573;DHT22;271;51.114;13.780;2023-06-14T01:58:37;11.70;1.00
573;DHT22;271;51.114;13.780;2023-06-14T02:01:25;11.70;1.00
573;DHT22;271;51.114;13.780;2023-06-14T02:04:13;11.60;1.00
573;DHT22;271;51.114;13.780;2023-06-14T02:07:01;11.70;1.00
573;DHT22;271;51.114;13.780;2023-06-14T02:09:48;11.60;1.00
573;DHT22;271;51.114;13.780;2023-06-14T02:12:36;11.40;1.00
573;DHT22;271;51.114;13.780;2023-06-14T02:15:25;11.40;1.00
573;DHT22;271;51.114;13.780;2023-06-14T02:18:20;11.40;1.00
573;DHT22;271;51.114;13.780;2023-06-14T02:21:07;11.30;1.00
573;DHT22;271;51.114;13.780;2023-06-14T02:23:55;11.20;1.00
573;DHT22;271;51.114;13.780;2023-06-14T02:26:44;11.20;1.00
573;DHT22;271;51.114;13.780;2023-06-14T02:29:32;11.10;1.00
573;DHT22;271;51.114;13.780;2023-06-14T02:32:21;11.10;1.00
573;DHT22;271;51.114;13.780;2023-06-14T02:35:09;11.10;1.00
573;DHT22;271;51.114;13.780;2023-06-14T02:37:57;11.10;1.00
573;DHT22;271;51.114;13.780;2023-06-14T02:40:45;11.00;1.00
573;DHT22;271;51.114;13.780;2023-06-14T02:43:33;11.00;1.00
573;DHT22;271;51.114;13.780;2023-06-14T02:46:21;10.90;1.00
573;DHT22;271;51.114;13.780;2023-06-14T02:49:10;10.90;1.00
573;DHT22;271;51.114;13.780;2023-06-14T02:51:57;10.80;1.00
573;DHT22;271;51.114;13.780;2023-06-14T02:54:45;10.70;1.00
573;DHT22;271;51.114;13.780;2023-06-14T02:57:33;10.70;1.00
573;DHT22;271;51.114;13.780;2023-06-14T03:00:21;10.80;1.00
573;DHT22;271;51.114;13.780;2023-06-14T03:03:09;10.70;1.00
573;DHT22;271;51.114;13.780;2023-06-14T03:06:01;10.60;1.00
573;DHT22;271;51.114;13.780;2023-06-14T03:08:51;10.50;1.00
573;DHT22;271;51.114;13.780;2023-06-14T03:11:41;10.50;1.00
573;DHT22;271;51.114;13.780;2023-06-14T03:14:29;10.50;1.00
573;DHT22;271;51.114;13.780;2023-06-14T03:17:16;10.50;1.00
573;DHT22;271;51.114;13.780;2023-06-14T03:20:07;10.40;1.00
573;DHT22;271;51.114;13.780;2023-06-14T03:22:56;10.40;1.00
573;DHT22;271;51.114;13.780;2023-06-14T03:25:44;10.50;1.00
573;DHT22;271;51.114;13.780;2023-06-14T03:28:31;10.40;1.00
573;DHT22;271;51.114;13.780;2023-06-14T03:31:19;10.40;1.00
573;DHT22;271;51.114;13.780;2023-06-14T03:34:07;10.40;1.00
573;DHT22;271;51.114;13.780;2023-06-14T03:36:55;10.50;1.00
573;DHT22;271;51.114;13.780;2023-06-14T03:39:44;10.40;1.00
573;DHT22;271;51.114;13.780;2023-06-14T03:42:32;10.40;1.00
573;DHT22;271;51.114;13.780;2023-06-14T03:45:20;10.50;1.00
573;DHT22;271;51.114;13.780;2023-06-14T03:48:08;10.60;1.00
573;DHT22;271;51.114;13.780;2023-06-14T03:50:57;10.60;1.00
573;DHT22;271;51.114;13.780;2023-06-14T03:53:44;10.60;1.00
573;DHT22;271;51.114;13.780;2023-06-14T03:56:33;10.60;1.00
573;DHT22;271;51.114;13.780;2023-06-14T03:59:22;10.50;1.00
573;DHT22;271;51.114;13.780;2023-06-14T04:02:10;10.70;1.00
573;DHT22;271;51.114;13.780;2023-06-14T04:04:58;10.70;1.00
573;DHT22;271;51.114;13.780;2023-06-14T04:07:46;10.80;1.00
573;DHT22;271;51.114;13.780;2023-06-14T04:10:35;10.90;1.00
573;DHT22;271;51.114;13.780;2023-06-14T04:13:24;10.90;1.00
573;DHT22;271;51.114;13.780;2023-06-14T04:16:11;11.10;1.00
573;DHT22;271;51.114;13.780;2023-06-14T04:19:00;11.20;1.00
573;DHT22;271;51.114;13.780;2023-06-14T04:21:47;11.40;1.00
573;DHT22;271;51.114;13.780;2023-06-14T04:24:35;11.50;1.00
573;DHT22;271;51.114;13.780;2023-06-14T04:27:23;11.80;1.00
573;DHT22;271;51.114;13.780;2023-06-14T04:30:13;11.90;1.00
573;DHT22;271;51.114;13.780;2023-06-14T04:33:01;12.10;1.00
573;DHT22;271;51.114;13.780;2023-06-14T04:35:52;12.30;1.00
573;DHT22;271;51.114;13.780;2023-06-14T04:38:40;12.50;1.00
573;DHT22;271;51.114;13.780;2023-06-14T04:41:32;12.60;1.00
573;DHT22;271;51.114;13.780;2023-06-14T04:44:21;12.80;1.00
573;DHT22;271;51.114;13.780;2023-06-14T04:47:12;12.90;1.00
573;DHT22;271;51.114;13.780;2023-06-14T04:50:01;13.20;1.00
573;DHT22;271;51.114;13.780;2023-06-14T04:52:49;13.40;1.00
573;DHT22;271;51.114;13.780;2023-06-14T04:55:37;13.70;1.00
573;DHT22;271;51.114;13.780;2023-06-14T04:58:25;13.90;1.00
573;DHT22;271;51.114;13.780;2023-06-14T05:01:13;14.00;1.00
573;DHT22;271;51.114;13.780;2023-06-14T05:04:03;14.30;1.00
573;DHT22;271;51.114;13.780;2023-06-14T05:06:50;14.60;1.00
573;DHT22;271;51.114;13.780;2023-06-14T05:09:40;15.00;1.00
573;DHT22;271;51.114;13.780;2023-06-14T05:12:28;15.70;1.00
573;DHT22;271;51.114;13.780;2023-06-14T05:15:16;16.50;1.00
573;DHT22;271;51.114;13.780;2023-06-14T05:18:03;17.10;1.00
573;DHT22;271;51.114;13.780;2023-06-14T05:20:53;17.60;1.00
573;DHT22;271;51.114;13.780;2023-06-14T05:23:40;17.20;1.00
573;DHT22;271;51.114;13.780;2023-06-14T05:26:28;16.70;1.00
573;DHT22;271;51.114;13.780;2023-06-14T05:29:16;16.20;1.00
573;DHT22;271;51.114;13.780;2023-06-14T05:32:04;15.90;1.00
573;DHT22;271;51.114;13.780;2023-06-14T05:34:52;15.50;1.00
573;DHT22;271;51.114;13.780;2023-06-14T05:37:42;15.40;1.00
573;DHT22;271;51.114;13.780;2023-06-14T05:40:31;15.30;1.00
573;DHT22;271;51.114;13.780;2023-06-14T05:43:22;15.20;1.00
573;DHT22;271;51.114;13.780;2023-06-14T05:46:10;15.10;1.00
573;DHT22;271;51.114;13.780;2023-06-14T05:48:58;15.70;1.00
573;DHT22;271;51.114;13.780;2023-06-14T05:51:45;17.00;1.00
573;DHT22;271;51.114;13.780;2023-06-14T05:54:37;18.30;1.00
573;DHT22;271;51.114;13.780;2023-06-14T05:57:25;19.50;1.00
573;DHT22;271;51.114;13.780;2023-06-14T06:00:14;20.10;1.00
573;DHT22;271;51.114;13.780;2023-06-14T06:03:02;20.40;1.00
573;DHT22;271;51.114;13.780;2023-06-14T06:05:50;21.50;1.00
573;DHT22;271;51.114;13.780;2023-06-14T06:08:37;22.40;1.00
573;DHT22;271;51.114;13.780;2023-06-14T06:11:26;23.10;1.00
573;DHT22;271;51.114;13.780;2023-06-14T06:14:14;23.60;1.00
573;DHT22;271;51.114;13.780;2023-06-14T06:17:02;23.80;1.00
573;DHT22;271;51.114;13.780;2023-06-14T06:19:50;23.80;1.00
573;DHT22;271;51.114;13.780;2023-06-14T06:22:37;24.30;1.00
573;DHT22;271;51.114;13.780;2023-06-14T06:25:26;24.90;1.00
573;DHT22;271;51.114;13.780;2023-06-14T06:28:15;25.80;1.00
573;DHT22;271;51.114;13.780;2023-06-14T06:31:03;26.00;1.00
573;DHT22;271;51.114;13.780;2023-06-14T06:33:51;26.10;1.00
573;DHT22;271;51.114;13.780;2023-06-14T06:36:40;26.60;1.00
573;DHT22;271;51.114;13.780;2023-06-14T06:39:28;26.90;1.00
573;DHT22;271;51.114;13.780;2023-06-14T06:42:16;27.00;1.00
573;DHT22;271;51.114;13.780;2023-06-14T06:45:06;27.40;1.00
573;DHT22;271;51.114;13.780;2023-06-14T06:47:53;27.50;1.00
573;DHT22;271;51.114;13.780;2023-06-14T06:50:42;27.60;1.00
573;DHT22;271;51.114;13.780;2023-06-14T06:53:29;27.50;1.00
573;DHT22;271;51.114;13.780;2023-06-14T06:56:17;27.90;1.00
573;DHT22;271;51.114;13.780;2023-06-14T06:59:05;28.40;1.00
573;DHT22;271;51.114;13.780;2023-06-14T07:01:54;27.90;1.00
573;DHT22;271;51.114;13.780;2023-06-14T07:04:42;28.50;1.00
573;DHT22;271;51.114;13.780;2023-06-14T07:07:32;29.10;1.00
573;DHT22;271;51.114;13.780;2023-06-14T07:10:20;28.80;1.00
573;DHT22;271;51.114;13.780;2023-06-14T07:13:08;28.70;1.00
573;DHT22;271;51.114;13.780;2023-06-14T07:15:58;28.90;1.00
573;DHT22;271;51.114;13.780;2023-06-14T07:18:55;28.70;1.00
573;DHT22;271;51.114;13.780;2023-06-14T07:21:43;28.90;1.00
573;DHT22;271;51.114;13.780;2023-06-14T07:24:30;29.10;1.00
573;DHT22;271;51.114;13.780;2023-06-14T07:27:18;29.70;1.00
573;DHT22;271;51.114;13.780;2023-06-14T07:30:07;29.40;1.00
573;DHT22;271;51.114;13.780;2023-06-14T07:32:55;29.00;1.00
573;DHT22;271;51.114;13.780;2023-06-14T07:35:44;29.30;1.00
573;DHT22;271;51.114;13.780;2023-06-14T07:38:34;29.10;1.00
573;DHT22;271;51.114;13.780;2023-06-14T07:41:23;28.90;1.00
573;DHT22;271;51.114;13.780;2023-06-14T07:44:11;29.20;1.00
573;DHT22;271;51.114;13.780;2023-06-14T07:46:59;29.10;1.00
573;DHT22;271;51.114;13.780;2023-06-14T07:49:47;29.30;1.00
573;DHT22;271;51.114;13.780;2023-06-14T07:52:36;29.20;1.00
573;DHT22;271;51.114;13.780;2023-06-14T07:55:24;29.10;1.00
573;DHT22;271;51.114;13.780;2023-06-14T07:58:14;29.10;1.00
573;DHT22;271;51.114;13.780;2023-06-14T08:01:02;29.70;1.00
573;DHT22;271;51.114;13.780;2023-06-14T08:03:54;29.50;1.00
573;DHT22;271;51.114;13.780;2023-06-14T08:06:42;29.50;1.00
573;DHT22;271;51.114;13.780;2023-06-14T08:09:33;29.50;1.00
573;DHT22;271;51.114;13.780;2023-06-14T08:12:21;28.50;1.00
573;DHT22;271;51.114;13.780;2023-06-14T08:15:10;28.40;1.00
573;DHT22;271;51.114;13.780;2023-06-14T08:17:57;29.30;1.00
573;DHT22;271;51.114;13.780;2023-06-14T08:20:46;29.00;1.00
573;DHT22;271;51.114;13.780;2023-06-14T08:23:34;28.30;1.00
573;DHT22;271;51.114;13.780;2023-06-14T08:26:23;27.60;1.00
573;DHT22;271;51.114;13.780;2023-06-14T08:29:15;26.40;1.00
573;DHT22;271;51.114;13.780;2023-06-14T08:32:03;25.60;1.00
573;DHT22;271;51.114;13.780;2023-06-14T08:34:51;24.90;1.00
573;DHT22;271;51.114;13.780;2023-06-14T08:37:39;24.80;1.00
573;DHT22;271;51.114;13.780;2023-06-14T08:40:30;24.70;1.00
573;DHT22;271;51.114;13.780;2023-06-14T08:43:19;24.50;1.00
573;DHT22;271;51.114;13.780;2023-06-14T08:46:07;24.70;1.00
573;DHT22;271;51.114;13.780;2023-06-14T08:48:59;25.80;1.00
573;DHT22;271;51.114;13.780;2023-06-14T08:51:47;26.50;1.00
573;DHT22;271;51.114;13.780;2023-06-14T08:54:41;26.80;1.00
573;DHT22;271;51.114;13.780;2023-06-14T08:57:30;26.00;1.00
573;DHT22;271;51.114;13.780;2023-06-14T09:00:22;25.50;1.00
573;DHT22;271;51.114;13.780;2023-06-14T09:03:10;25.30;1.00
573;DHT22;271;51.114;13.780;2023-06-14T09:06:00;25.20;1.00
573;DHT22;271;51.114;13.780;2023-06-14T09:08:48;25.10;1.00
573;DHT22;271;51.114;13.780;2023-06-14T09:11:36;25.30;1.00
573;DHT22;271;51.114;13.780;2023-06-14T09:14:24;25.30;1.00
573;DHT22;271;51.114;13.780;2023-06-14T09:17:15;25.00;1.00
573;DHT22;271;51.114;13.780;2023-06-14T09:20:04;25.10;1.00
573;DHT22;271;51.114;13.780;2023-06-14T09:22:55;24.70;1.00
573;DHT22;271;51.114;13.780;2023-06-14T09:25:43;23.90;1.00
573;DHT22;271;51.114;13.780;2023-06-14T09:28:31;23.00;1.00
573;DHT22;271;51.114;13.780;2023-06-14T09:31:19;22.50;1.00
573;DHT22;271;51.114;13.780;2023-06-14T09:34:09;22.50;1.00
573;DHT22;271;51.114;13.780;2023-06-14T09:36:57;22.50;1.00
573;DHT22;271;51.114;13.780;2023-06-14T09:39:51;22.70;1.00
573;DHT22;271;51.114;13.780;2023-06-14T09:42:40;22.60;1.00
573;DHT22;271;51.114;13.780;2023-06-14T09:45:27;22.70;1.00
573;DHT22;271;51.114;13.780;2023-06-14T09:48:17;22.90;1.00
573;DHT22;271;51.114;13.780;2023-06-14T09:51:06;23.10;1.00
573;DHT22;271;51.114;13.780;2023-06-14T09:53:58;23.00;1.00
573;DHT22;271;51.114;13.780;2023-06-14T09:56:47;22.80;1.00
573;DHT22;271;51.114;13.780;2023-06-14T09:59:41;22.50;1.00
573;DHT22;271;51.114;13.780;2023-06-14T10:02:31;22.70;1.00
573;DHT22;271;51.114;13.780;2023-06-14T10:05:23;23.00;1.00
573;DHT22;271;51.114;13.780;2023-06-14T10:08:16;22.60;1.00
573;DHT22;271;51.114;13.780;2023-06-14T10:11:05;23.00;1.00
573;DHT22;271;51.114;13.780;2023-06-14T10:13:53;23.80;1.00
573;DHT22;271;51.114;13.780;2023-06-14T10:16:55;24.30;1.00
573;DHT22;271;51.114;13.780;2023-06-14T10:19:48;24.00;1.00
573;DHT22;271;51.114;13.780;2023-06-14T10:22:44;23.60;1.00
573;DHT22;271;51.114;13.780;2023-06-14T10:25:35;23.50;1.00
573;DHT22;271;51.114;13.780;2023-06-14T10:28:23;23.00;1.00
573;DHT22;271;51.114;13.780;2023-06-14T10:31:12;22.50;1.00
573;DHT22;271;51.114;13.780;2023-06-14T10:34:00;22.10;1.00
573;DHT22;271;51.114;13.780;2023-06-14T10:37:00;22.80;1.00
573;DHT22;271;51.114;13.780;2023-06-14T10:39:50;23.70;1.00
573;DHT22;271;51.114;13.780;2023-06-14T10:42:51;24.40;1.00
573;DHT22;271;51.114;13.780;2023-06-14T10:46:15;24.90;1.00
573;DHT22;271;51.114;13.780;2023-06-14T10:49:03;25.00;1.00
573;DHT22;271;51.114;13.780;2023-06-14T10:51:51;24.60;1.00
573;DHT22;271;51.114;13.780;2023-06-14T10:55:05;24.20;1.00
573;DHT22;271;51.114;13.780;2023-06-14T10:57:57;23.60;1.00
573;DHT22;271;51.114;13.780;2023-06-14T11:00:48;23.30;1.00
573;DHT22;271;51.114;13.780;2023-06-14T11:03:51;23.50;1.00
573;DHT22;271;51.114;13.780;2023-06-14T11:06:47;23.80;1.00
573;DHT22;271;51.114;13.780;2023-06-14T11:10:06;23.90;1.00
573;DHT22;271;51.114;13.780;2023-06-14T11:12:59;23.90;1.00
573;DHT22;271;51.114;13.780;2023-06-14T11:15:47;24.10;1.00
573;DHT22;271;51.114;13.780;2023-06-14T11:18:48;24.30;1.00
573;DHT22;271;51.114;13.780;2023-06-14T11:21:40;24.50;1.00
573;DHT22;271;51.114;13.780;2023-06-14T11:24:28;24.60;1.00
573;DHT22;271;51.114;13.780;2023-06-14T11:27:15;24.60;1.00
573;DHT22;271;51.114;13.780;2023-06-14T11:30:17;24.00;1.00
573;DHT22;271;51.114;13.780;2023-06-14T11:33:09;23.30;1.00
573;DHT22;271;51.114;13.780;2023-06-14T11:35:58;22.80;1.00
573;DHT22;271;51.114;13.780;2023-06-14T11:38:49;22.40;1.00
573;DHT22;271;51.114;13.780;2023-06-14T11:41:39;22.10;1.00
573;DHT22;271;51.114;13.780;2023-06-14T11:44:27;21.80;1.00
573;DHT22;271;51.114;13.780;2023-06-14T11:47:16;21.70;1.00
573;DHT22;271;51.114;13.780;2023-06-14T11:50:05;21.60;1.00
573;DHT22;271;51.114;13.780;2023-06-14T11:52:54;21.50;1.00
573;DHT22;271;51.114;13.780;2023-06-14T11:55:42;21.30;1.00
573;DHT22;271;51.114;13.780;2023-06-14T11:58:32;21.40;1.00
573;DHT22;271;51.114;13.780;2023-06-14T12:01:20;21.30;1.00
573;DHT22;271;51.114;13.780;2023-06-14T12:04:09;21.10;1.00
573;DHT22;271;51.114;13.780;2023-06-14T12:06:56;21.00;1.00
573;DHT22;271;51.114;13.780;2023-06-14T12:10:05;21.00;1.00
573;DHT22;271;51.114;13.780;2023-06-14T12:12:57;21.00;1.00
573;DHT22;271;51.114;13.780;2023-06-14T12:15:54;21.00;1.00
573;DHT22;271;51.114;13.780;2023-06-14T12:18:41;21.10;1.00
573;DHT22;271;51.114;13.780;2023-06-14T12:21:33;20.90;1.00
573;DHT22;271;51.114;13.780;2023-06-14T12:24:28;20.70;1.00
573;DHT22;271;51.114;13.780;2023-06-14T12:27:16;20.50;1.00
573;DHT22;271;51.114;13.780;2023-06-14T12:30:07;20.30;1.00
573;DHT22;271;51.114;13.780;2023-06-14T12:32:55;20.20;1.00
573;DHT22;271;51.114;13.780;2023-06-14T12:35:43;20.30;1.00
573;DHT22;271;51.114;13.780;2023-06-14T12:38:33;20.70;1.00
573;DHT22;271;51.114;13.780;2023-06-14T12:41:23;21.10;1.00
573;DHT22;271;51.114;13.780;2023-06-14T12:44:13;21.50;1.00
573;DHT22;271;51.114;13.780;2023-06-14T12:47:01;21.60;1.00
573;DHT22;271;51.114;13.780;2023-06-14T12:49:49;21.60;1.00
573;DHT22;271;51.114;13.780;2023-06-14T12:52:37;21.60;1.00
573;DHT22;271;51.114;13.780;2023-06-14T12:55:26;21.50;1.00
573;DHT22;271;51.114;13.780;2023-06-14T12:58:14;21.60;1.00
573;DHT22;271;51.114;13.780;2023-06-14T13:01:03;21.70;1.00
573;DHT22;271;51.114;13.780;2023-06-14T13:03:51;21.60;1.00
573;DHT22;271;51.114;13.780;2023-06-14T13:06:40;21.50;1.00
573;DHT22;271;51.114;13.780;2023-06-14T13:09:27;21.20;1.00
573;DHT22;271;51.114;13.780;2023-06-14T13:12:16;20.90;1.00
573;DHT22;271;51.114;13.780;2023-06-14T13:15:05;20.60;1.00
573;DHT22;271;51.114;13.780;2023-06-14T13:17:54;20.30;1.00
573;DHT22;271;51.114;13.780;2023-06-14T13:20:42;20.30;1.00
573;DHT22;271;51.114;13.780;2023-06-14T13:23:29;20.40;1.00
573;DHT22;271;51.114;13.780;2023-06-14T13:26:17;20.60;1.00
573;DHT22;271;51.114;13.780;2023-06-14T13:29:07;20.60;1.00
573;DHT22;271;51.114;13.780;2023-06-14T13:31:55;20.70;1.00
573;DHT22;271;51.114;13.780;2023-06-14T13:34:42;20.90;1.00
573;DHT22;271;51.114;13.780;2023-06-14T13:37:30;20.90;1.00
573;DHT22;271;51.114;13.780;2023-06-14T13:40:18;21.10;1.00
573;DHT22;271;51.114;13.780;2023-06-14T13:43:06;21.10;1.00
573;DHT22;271;51.114;13.780;2023-06-14T13:45:55;21.10;1.00
573;DHT22;271;51.114;13.780;2023-06-14T13:48:43;20.80;1.00
573;DHT22;271;51.114;13.780;2023-06-14T13:51:32;20.70;1.00
573;DHT22;271;51.114;13.780;2023-06-14T13:54:21;20.70;1.00
573;DHT22;271;51.114;13.780;2023-06-14T13:57:09;20.80;1.00
573;DHT22;271;51.114;13.780;2023-06-14T13:59:59;21.00;1.00
573;DHT22;271;51.114;13.780;2023-06-14T14:02:49;21.20;1.00
573;DHT22;271;51.114;13.780;2023-06-14T14:05:37;21.20;1.00
573;DHT22;271;51.114;13.780;2023-06-14T14:08:25;21.20;1.00
573;DHT22;271;51.114;13.780;2023-06-14T14:11:13;21.20;1.00
573;DHT22;271;51.114;13.780;2023-06-14T14:14:02;21.20;1.00
573;DHT22;271;51.114;13.780;2023-06-14T14:16:51;20.90;1.00
573;DHT22;271;51.114;13.780;2023-06-14T14:19:41;20.80;1.00
573;DHT22;271;51.114;13.780;2023-06-14T14:22:28;20.60;1.00
573;DHT22;271;51.114;13.780;2023-06-14T14:25:16;20.70;1.00
573;DHT22;271;51.114;13.780;2023-06-14T14:28:04;20.80;1.00
573;DHT22;271;51.114;13.780;2023-06-14T14:30:52;20.90;1.00
573;DHT22;271;51.114;13.780;2023-06-14T14:33:40;21.00;1.00
573;DHT22;271;51.114;13.780;2023-06-14T14:36:29;20.90;1.00
573;DHT22;271;51.114;13.780;2023-06-14T14:39:17;20.80;1.00
573;DHT22;271;51.114;13.780;2023-06-14T14:42:05;20.80;1.00
573;DHT22;271;51.114;13.780;2023-06-14T14:44:54;20.80;1.00
573;DHT22;271;51.114;13.780;2023-06-14T14:47:41;20.90;1.00
573;DHT22;271;51.114;13.780;2023-06-14T14:50:32;21.00;1.00
573;DHT22;271;51.114;13.780;2023-06-14T14:53:21;21.20;1.00
573;DHT22;271;51.114;13.780;2023-06-14T14:56:09;21.40;1.00
573;DHT22;271;51.114;13.780;2023-06-14T14:58:58;21.50;1.00
573;DHT22;271;51.114;13.780;2023-06-14T15:01:46;21.60;1.00
573;DHT22;271;51.114;13.780;2023-06-14T15:04:33;21.70;1.00
573;DHT22;271;51.114;13.780;2023-06-14T15:07:22;21.80;1.00
573;DHT22;271;51.114;13.780;2023-06-14T15:10:11;21.60;1.00
573;DHT22;271;51.114;13.780;2023-06-14T15:13:01;21.40;1.00
573;DHT22;271;51.114;13.780;2023-06-14T15:15:49;21.20;1.00
573;DHT22;271;51.114;13.780;2023-06-14T15:18:42;21.20;1.00
573;DHT22;271;51.114;13.780;2023-06-14T15:21:30;21.30;1.00
573;DHT22;271;51.114;13.780;2023-06-14T15:24:18;21.20;1.00
573;DHT22;271;51.114;13.780;2023-06-14T15:27:07;21.10;1.00
573;DHT22;271;51.114;13.780;2023-06-14T15:29:55;21.10;1.00
573;DHT22;271;51.114;13.780;2023-06-14T15:32:43;21.20;1.00
573;DHT22;271;51.114;13.780;2023-06-14T15:35:34;21.10;1.00
573;DHT22;271;51.114;13.780;2023-06-14T15:38:23;21.00;1.00
573;DHT22;271;51.114;13.780;2023-06-14T15:41:11;21.10;1.00
573;DHT22;271;51.114;13.780;2023-06-14T15:44:00;21.00;1.00
573;DHT22;271;51.114;13.780;2023-06-14T15:46:48;21.00;1.00
573;DHT22;271;51.114;13.780;2023-06-14T15:49:36;21.00;1.00
573;DHT22;271;51.114;13.780;2023-06-14T15:52:23;21.00;1.00
573;DHT22;271;51.114;13.780;2023-06-14T15:55:11;21.00;1.00
573;DHT22;271;51.114;13.780;2023-06-14T15:58:04;20.90;1.00
573;DHT22;271;51.114;13.780;2023-06-14T16:00:53;20.90;1.00
573;DHT22;271;51.114;13.780;2023-06-14T16:03:44;21.00;1.00
573;DHT22;271;51.114;13.780;2023-06-14T16:06:31;21.00;1.00
573;DHT22;271;51.114;13.780;2023-06-14T16:09:20;20.90;1.00
573;DHT22;271;51.114;13.780;2023-06-14T16:12:08;20.80;1.00
573;DHT22;271;51.114;13.780;2023-06-14T16:14:59;20.90;1.00
573;DHT22;271;51.114;13.780;2023-06-14T16:17:48;20.90;1.00
573;DHT22;271;51.114;13.780;2023-06-14T16:20:36;20.90;1.00
573;DHT22;271;51.114;13.780;2023-06-14T16:23:24;20.80;1.00
573;DHT22;271;51.114;13.780;2023-06-14T16:26:15;20.90;1.00
573;DHT22;271;51.114;13.780;2023-06-14T16:29:03;20.80;1.00
573;DHT22;271;51.114;13.780;2023-06-14T16:31:51;20.80;1.00
573;DHT22;271;51.114;13.780;2023-06-14T16:34:40;20.90;1.00
573;DHT22;271;51.114;13.780;2023-06-14T16:37:30;20.80;1.00
573;DHT22;271;51.114;13.780;2023-06-14T16:40:18;20.90;1.00
573;DHT22;271;51.114;13.780;2023-06-14T16:43:06;20.80;1.00
573;DHT22;271;51.114;13.780;2023-06-14T16:45:54;20.80;1.00
573;DHT22;271;51.114;13.780;2023-06-14T16:48:42;20.80;1.00
573;DHT22;271;51.114;13.780;2023-06-14T16:51:31;20.90;1.00
573;DHT22;271;51.114;13.780;2023-06-14T16:54:29;20.90;1.00
573;DHT22;271;51.114;13.780;2023-06-14T16:57:17;20.80;1.00
573;DHT22;271;51.114;13.780;2023-06-14T17:00:06;20.70;1.00
573;DHT22;271;51.114;13.780;2023-06-14T17:02:54;20.80;1.00
573;DHT22;271;51.114;13.780;2023-06-14T17:05:54;20.70;1.00
573;DHT22;271;51.114;13.780;2023-06-14T17:08:43;20.70;1.00
573;DHT22;271;51.114;13.780;2023-06-14T17:11:31;20.70;1.00
573;DHT22;271;51.114;13.780;2023-06-14T17:14:26;20.80;1.00
573;DHT22;271;51.114;13.780;2023-06-14T17:17:14;20.80;1.00
573;DHT22;271;51.114;13.780;2023-06-14T17:20:08;20.80;1.00
573;DHT22;271;51.114;13.780;2023-06-14T17:22:56;20.80;1.00
573;DHT22;271;51.114;13.780;2023-06-14T17:25:45;20.80;1.00
573;DHT22;271;51.114;13.780;2023-06-14T17:28:34;20.80;1.00
573;DHT22;271;51.114;13.780;2023-06-14T17:31:22;20.80;1.00
573;DHT22;271;51.114;13.780;2023-06-14T17:34:10;20.70;1.00
573;DHT22;271;51.114;13.780;2023-06-14T17:36:59;20.60;1.00
573;DHT22;271;51.114;13.780;2023-06-14T17:39:47;20.60;1.00
573;DHT22;271;51.114;13.780;2023-06-14T17:42:36;20.50;1.00
573;DHT22;271;51.114;13.780;2023-06-14T17:45:24;20.30;1.00
573;DHT22;271;51.114;13.780;2023-06-14T17:59:00;20.00;1.00
573;DHT22;271;51.114;13.780;2023-06-14T18:01:48;20.00;1.00
573;DHT22;271;51.114;13.780;2023-06-14T18:04:53;19.90;1.00
573;DHT22;271;51.114;13.780;2023-06-14T18:07:43;19.90;1.00
573;DHT22;271;51.114;13.780;2023-06-14T18:10:31;19.90;1.00
573;DHT22;271;51.114;13.780;2023-06-14T18:13:19;19.80;1.00
573;DHT22;271;51.114;13.780;2023-06-14T18:16:09;19.80;1.00
573;DHT22;271;51.114;13.780;2023-06-14T18:19:00;19.80;1.00
573;DHT22;271;51.114;13.780;2023-06-14T18:21:49;19.80;1.00
573;DHT22;271;51.114;13.780;2023-06-14T18:24:37;19.90;1.00
573;DHT22;271;51.114;13.780;2023-06-14T18:27:25;19.80;1.00
573;DHT22;271;51.114;13.780;2023-06-14T18:30:13;19.80;1.00
573;DHT22;271;51.114;13.780;2023-06-14T18:33:02;19.70;1.00
573;DHT22;271;51.114;13.780;2023-06-14T18:35:51;19.60;1.00
573;DHT22;271;51.114;13.780;2023-06-14T18:38:39;19.60;1.00
573;DHT22;271;51.114;13.780;2023-06-14T18:41:28;19.50;1.00
573;DHT22;271;51.114;13.780;2023-06-14T18:44:20;19.50;1.00
573;DHT22;271;51.114;13.780;2023-06-14T18:49:57;19.40;1.00
573;DHT22;271;51.114;13.780;2023-06-14T18:53:28;19.40;1.00
573;DHT22;271;51.114;13.780;2023-06-14T18:56:15;19.30;1.00
573;DHT22;271;51.114;13.780;2023-06-14T18:59:03;19.20;1.00
573;DHT22;271;51.114;13.780;2023-06-14T19:01:57;19.10;1.00
573;DHT22;271;51.114;13.780;2023-06-14T19:04:46;19.00;1.00
573;DHT22;271;51.114;13.780;2023-06-14T19:07:33;19.00;1.00
573;DHT22;271;51.114;13.780;2023-06-14T19:10:22;18.90;1.00
573;DHT22;271;51.114;13.780;2023-06-14T19:13:10;18.80;1.00
573;DHT22;271;51.114;13.780;2023-06-14T19:15:58;18.70;1.00
573;DHT22;271;51.114;13.780;2023-06-14T19:18:45;18.60;1.00